Time;durP1;ratioP1;P1;durP2;ratioP2;P2;SDS_P1;SDS_P2;PMS_P1;PMS_P2;Temp;Humidity;BMP_temperature;BMP_pressure;BME280_temperature;BME280_humidity;BME280_pressure;Samples;Min_cycle;Max_cycle;Signal;HPM_P1;HPM_P2
2022/05/03 00:02:08;;;;;;;12.48;7.43;;;16.90;99.90;;;;;;5048765;28;20384;-83
2022/05/03 00:05:02;;;;;;;6.87;4.20;;;17.00;99.90;;;;;;5048578;28;20763;-84
2022/05/03 00:07:39;;;;;;;7.63;4.00;;;17.10;99.90;;;;;;5047332;28;20445;-83
2022/05/03 00:10:13;;;;;;;6.88;3.90;;;17.20;99.90;;;;;;5048680;28;20840;-83
2022/05/03 00:12:47;;;;;;;4.75;2.50;;;17.40;99.90;;;;;;5047164;28;20760;-83
2022/05/03 00:15:18;;;;;;;5.85;2.55;;;17.50;99.90;;;;;;5047842;28;20380;-82
2022/05/03 00:17:48;;;;;;;5.43;2.15;;;17.70;99.90;;;;;;5048429;28;20450;-84
2022/05/03 00:20:15;;;;;;;5.15;2.40;;;17.90;99.90;;;;;;5048329;28;20383;-83
2022/05/03 00:22:43;;;;;;;7.28;2.83;;;18.00;99.90;;;;;;5047824;28;20407;-84
2022/05/03 00:25:10;;;;;;;4.85;2.40;;;18.00;99.90;;;;;;5048093;28;20888;-84
2022/05/03 00:27:37;;;;;;;5.53;2.20;;;18.10;99.90;;;;;;5048186;28;20894;-83
2022/05/03 00:30:06;;;;;;;7.60;1.60;;;18.20;99.90;;;;;;5048165;28;20466;-84
2022/05/03 00:32:34;;;;;;;4.60;1.60;;;18.30;99.90;;;;;;5048270;28;21170;-84
2022/05/03 00:35:02;;;;;;;5.43;1.70;;;18.50;99.90;;;;;;5048150;28;20959;-84
2022/05/03 00:37:29;;;;;;;5.07;1.60;;;18.60;99.90;;;;;;5048176;28;20479;-83
2022/05/03 00:39:56;;;;;;;3.60;1.33;;;18.70;99.90;;;;;;5048056;28;20902;-82
2022/05/03 00:42:34;;;;;;;4.22;1.55;;;18.80;99.90;;;;;;5047862;28;20484;-84
2022/05/03 00:45:15;;;;;;;4.40;1.67;;;19.00;99.90;;;;;;5047733;28;20395;-83
2022/05/03 00:48:07;;;;;;;5.22;1.50;;;19.10;99.90;;;;;;5047892;28;20376;-83
2022/05/03 00:50:42;;;;;;;4.40;1.70;;;19.20;99.90;;;;;;5047690;28;20376;-84
2022/05/03 00:53:29;;;;;;;5.05;1.63;;;19.30;99.90;;;;;;5047820;28;20413;-84
2022/05/03 00:56:08;;;;;;;5.32;1.65;;;19.40;99.90;;;;;;5047740;28;20468;-84
2022/05/03 00:59:19;;;;;;;6.18;1.40;;;19.50;99.90;;;;;;5047599;28;20376;-83
2022/05/03 01:02:02;;;;;;;4.97;1.60;;;19.80;99.90;;;;;;5045239;28;20826;-84
2022/05/03 01:04:51;;;;;;;4.57;1.48;;;20.00;99.90;;;;;;5028436;28;21000;-84
2022/05/03 01:07:28;;;;;;;4.93;1.40;;;20.10;99.90;;;;;;5045372;28;20410;-84
2022/05/03 01:10:30;;;;;;;6.85;1.50;;;20.30;99.90;;;;;;5045179;28;20420;-83
2022/05/03 01:13:30;;;;;;;3.45;1.42;;;20.40;99.90;;;;;;4966480;28;20469;-83
2022/05/03 01:16:03;;;;;;;3.70;1.33;;;20.70;99.90;;;;;;4909280;29;20384;-83
2022/05/03 01:18:53;;;;;;;3.65;1.08;;;20.90;99.90;;;;;;4908913;29;20970;-82
2022/05/03 01:21:42;;;;;;;4.28;1.17;;;21.30;99.90;;;;;;4909187;29;20394;-85
2022/05/03 01:24:51;;;;;;;4.20;1.20;;;21.70;99.90;;;;;;4909081;29;20459;-84
2022/05/03 01:27:45;;;;;;;4.35;1.30;;;22.30;99.90;;;;;;4834401;29;20409;-83
2022/05/03 01:30:12;;;;;;;4.47;1.05;;;23.00;99.90;;;;;;4834788;29;20402;-85
2022/05/03 01:32:45;;;;;;;3.95;1.30;;;23.50;99.90;;;;;;4834636;29;20402;-82
2022/05/03 01:35:14;;;;;;;6.15;1.30;;;23.00;99.90;;;;;;4834732;29;20421;-84
2022/05/03 01:37:41;;;;;;;5.43;1.27;;;23.20;99.90;;;;;;4834492;29;20404;-83
2022/05/03 01:40:15;;;;;;;3.73;1.10;;;23.30;99.30;;;;;;4834548;29;20446;-84
2022/05/03 01:43:40;;;;;;;5.00;1.10;;;23.40;99.60;;;;;;4834347;29;20402;-84
2022/05/03 01:46:18;;;;;;;4.70;1.05;;;23.20;98.60;;;;;;4762209;30;20444;-83
2022/05/03 01:52:02;;;;;;;2.63;1.00;;;24.70;96.20;;;;;;4800392;29;20407;-84
2022/05/03 01:54:32;;;;;;;3.30;1.00;;;25.00;93.30;;;;;;4852953;29;20405;-84
2022/05/03 01:57:08;;;;;;;3.83;1.23;;;24.90;91.40;;;;;;4853009;29;20412;-84
2022/05/03 01:59:56;;;;;;;4.97;1.23;;;24.80;91.90;;;;;;4852646;29;20487;-84
2022/05/03 02:02:41;;;;;;;4.53;1.15;;;24.30;92.40;;;;;;4855096;29;20758;-85
2022/05/03 02:05:14;;;;;;;3.47;1.20;;;24.00;94.00;;;;;;4908631;29;20877;-84
2022/05/03 02:07:53;;;;;;;6.10;1.20;;;24.50;94.20;;;;;;4908489;29;20777;-83
2022/05/03 02:10:42;;;;;;;6.68;1.40;;;24.90;92.30;;;;;;4908543;29;20486;-84
2022/05/03 02:14:43;;;;;;;3.58;1.20;;;24.90;90.60;;;;;;4908351;29;20395;-84
2022/05/03 02:16:29;;;;;;;4.53;1.45;;;24.90;90.60;;;;;;4908236;29;20475;-84
2022/05/03 02:19:08;;;;;;;3.73;1.50;;;24.50;90.10;;;;;;4921823;28;20389;-85
2022/05/03 02:21:52;;;;;;;2.83;1.20;;;24.10;91.80;;;;;;4985176;28;20404;-85
2022/05/03 02:24:39;;;;;;;2.78;1.17;;;23.90;93.10;;;;;;5045743;28;20419;-85
2022/05/03 02:27:10;;;;;;;3.60;1.30;;;23.60;93.00;;;;;;5053832;28;20423;-83
2022/05/03 02:29:46;;;;;;;3.60;1.02;;;23.40;92.70;;;;;;5047433;28;20736;-84
2022/05/03 02:32:17;;;;;;;4.13;1.27;;;23.20;91.90;;;;;;5046409;28;20458;-84
2022/05/03 02:34:54;;;;;;;3.58;1.05;;;23.00;93.60;;;;;;5046374;28;20513;-83
2022/05/03 02:37:34;;;;;;;5.53;1.17;;;23.00;94.10;;;;;;5046491;28;20371;-83
2022/05/03 02:40:07;;;;;;;3.88;1.27;;;22.90;94.20;;;;;;5049766;28;20379;-83
2022/05/03 02:42:35;;;;;;;4.03;1.08;;;23.10;94.50;;;;;;5050212;28;20367;-83
2022/05/03 02:45:05;;;;;;;4.87;1.10;;;23.20;92.80;;;;;;5050182;28;20430;-82
2022/05/03 02:48:08;;;;;;;4.28;1.10;;;23.10;93.10;;;;;;5050352;28;20367;-83
2022/05/03 02:50:53;;;;;;;3.72;1.10;;;23.50;92.80;;;;;;5050279;28;20380;-82
2022/05/03 02:53:37;;;;;;;3.55;0.80;;;23.60;91.30;;;;;;5048547;28;20753;-82
2022/05/03 02:56:17;;;;;;;2.03;0.80;;;24.00;84.90;;;;;;5048872;28;20376;-83
2022/05/03 02:59:02;;;;;;;3.60;0.85;;;24.00;82.60;;;;;;5050025;28;20376;-83
2022/05/03 03:01:49;;;;;;;4.25;1.00;;;24.70;77.60;;;;;;5049974;28;20371;-82
2022/05/03 03:04:36;;;;;;;3.05;1.00;;;25.10;76.80;;;;;;5049865;28;20411;-84
2022/05/03 03:07:05;;;;;;;2.40;0.85;;;26.00;75.30;;;;;;5050141;28;20375;-83
2022/05/03 03:09:54;;;;;;;2.80;0.93;;;26.60;69.60;;;;;;5049958;28;20382;-83
2022/05/03 03:12:41;;;;;;;3.55;0.80;;;26.00;69.40;;;;;;5049685;28;20447;-83
2022/05/03 03:15:10;;;;;;;2.47;0.80;;;26.00;72.00;;;;;;5049759;28;20372;-83
2022/05/03 03:17:42;;;;;;;4.10;0.80;;;26.30;66.50;;;;;;5049867;28;20379;-83
2022/05/03 03:20:13;;;;;;;3.65;1.00;;;26.70;65.80;;;;;;5049647;28;20372;-83
2022/05/03 03:22:46;;;;;;;4.75;0.90;;;27.10;62.30;;;;;;5049378;28;20744;-84
2022/05/03 03:25:19;;;;;;;3.20;0.98;;;26.90;62.70;;;;;;5049491;28;20407;-84
2022/05/03 03:27:48;;;;;;;2.63;0.73;;;27.10;61.80;;;;;;5048207;28;20380;-85
2022/05/03 03:30:16;;;;;;;2.45;0.80;;;26.60;63.30;;;;;;5049476;28;20454;-84
2022/05/03 03:32:50;;;;;;;3.42;0.82;;;27.00;63.30;;;;;;5064626;28;20368;-84
2022/05/03 03:35:19;;;;;;;2.50;0.85;;;27.20;62.70;;;;;;5049186;28;20400;-85
2022/05/03 03:37:48;;;;;;;2.50;0.82;;;27.10;61.80;;;;;;5049279;28;20466;-85
2022/05/03 03:40:19;;;;;;;2.25;0.60;;;27.10;61.80;;;;;;5048576;28;20987;-84
2022/05/03 03:42:48;;;;;;;2.58;0.77;;;27.30;61.50;;;;;;5049146;28;20467;-85
2022/05/03 03:45:16;;;;;;;3.47;0.70;;;27.40;60.80;;;;;;5049113;28;20763;-84
2022/05/03 03:47:45;;;;;;;1.95;0.73;;;27.70;59.20;;;;;;5049064;28;20382;-84
2022/05/03 03:50:13;;;;;;;1.27;0.57;;;27.90;58.00;;;;;;5049110;28;20776;-84
2022/05/03 03:52:43;;;;;;;3.03;0.80;;;27.30;58.80;;;;;;5049049;28;20878;-85
2022/05/03 03:55:11;;;;;;;2.13;0.70;;;27.20;58.90;;;;;;5049065;28;20376;-84
2022/05/03 03:57:40;;;;;;;4.38;0.75;;;26.70;58.40;;;;;;5048883;28;20384;-83
2022/05/03 04:00:10;;;;;;;3.10;0.70;;;26.10;59.80;;;;;;5048913;28;20380;-84
2022/05/03 04:02:40;;;;;;;2.60;0.70;;;25.60;61.80;;;;;;5049037;28;20418;-84
2022/05/03 04:05:13;;;;;;;2.10;0.70;;;25.90;61.90;;;;;;5048571;28;20410;-84
2022/05/03 04:07:40;;;;;;;2.22;0.73;;;26.60;62.00;;;;;;5048990;28;20371;-86
2022/05/03 04:10:07;;;;;;;2.50;0.80;;;27.00;59.30;;;;;;5048858;28;20859;-85
2022/05/03 04:12:35;;;;;;;1.90;0.70;;;26.70;60.40;;;;;;5048765;28;20390;-85
2022/05/03 04:15:02;;;;;;;1.88;0.60;;;26.90;59.70;;;;;;5048871;28;20393;-84
2022/05/03 04:17:29;;;;;;;3.33;0.60;;;27.20;58.20;;;;;;5048791;28;20387;-84
2022/05/03 04:19:56;;;;;;;2.50;0.75;;;27.40;58.10;;;;;;5048795;28;20376;-85
2022/05/03 04:22:28;;;;;;;1.80;0.70;;;27.30;58.30;;;;;;5048476;28;20386;-85
2022/05/03 04:24:56;;;;;;;1.38;0.60;;;27.20;57.60;;;;;;5048556;28;20474;-84
2022/05/03 04:27:23;;;;;;;2.83;0.60;;;27.20;57.70;;;;;;5048416;28;20372;-85
2022/05/03 04:29:51;;;;;;;1.38;0.60;;;27.50;57.80;;;;;;5048443;28;20386;-85
2022/05/03 04:32:18;;;;;;;1.90;0.73;;;28.10;56.00;;;;;;5048407;28;20446;-85
2022/05/03 04:34:45;;;;;;;1.65;0.70;;;28.50;55.30;;;;;;5048788;28;20463;-84
2022/05/03 04:37:15;;;;;;;1.50;0.80;;;28.20;56.00;;;;;;5048472;28;20376;-85
2022/05/03 04:39:42;;;;;;;2.67;0.60;;;27.80;56.20;;;;;;5048307;28;20406;-85
2022/05/03 04:42:10;;;;;;;2.05;0.70;;;27.60;55.40;;;;;;5048298;28;20419;-84
2022/05/03 04:44:37;;;;;;;2.08;0.70;;;28.00;56.20;;;;;;5046498;28;20898;-84
2022/05/03 04:47:05;;;;;;;2.88;0.60;;;28.60;55.70;;;;;;5048418;28;20384;-84
2022/05/03 04:49:32;;;;;;;1.92;0.55;;;29.20;53.60;;;;;;5050844;28;20466;-83
2022/05/03 04:51:59;;;;;;;1.50;0.70;;;29.30;51.70;;;;;;5047833;28;20930;-84
2022/05/03 04:54:27;;;;;;;2.35;0.60;;;29.30;52.10;;;;;;5047889;28;20380;-84
2022/05/03 04:57:09;;;;;;;1.98;0.50;;;29.30;52.50;;;;;;5047790;28;20372;-84
2022/05/03 04:59:38;;;;;;;0.93;0.60;;;29.40;51.80;;;;;;5047697;28;20376;-84
2022/05/03 05:02:05;;;;;;;2.30;0.88;;;29.60;51.70;;;;;;5047177;28;20363;-84
2022/05/03 05:04:32;;;;;;;1.60;0.60;;;29.40;51.50;;;;;;5047577;28;20407;-84
2022/05/03 05:06:59;;;;;;;2.47;0.70;;;28.80;52.60;;;;;;5047600;28;20411;-84
2022/05/03 05:09:26;;;;;;;2.50;0.70;;;27.80;53.90;;;;;;5047539;28;20781;-84
2022/05/03 05:11:53;;;;;;;2.95;0.70;;;27.10;55.40;;;;;;5047498;28;20890;-84
2022/05/03 05:14:20;;;;;;;1.50;0.60;;;26.40;57.20;;;;;;5047611;28;20391;-84
2022/05/03 05:16:51;;;;;;;2.13;0.70;;;26.00;58.00;;;;;;5047393;28;20387;-84
2022/05/03 05:19:18;;;;;;;1.35;0.70;;;25.70;58.40;;;;;;5047460;28;20383;-83
2022/05/03 05:21:45;;;;;;;5.15;0.90;;;25.40;60.60;;;;;;5047168;28;20471;-84
2022/05/03 05:24:13;;;;;;;1.98;0.80;;;25.20;62.30;;;;;;5047380;28;20400;-84
2022/05/03 05:26:41;;;;;;;3.30;0.98;;;25.00;63.40;;;;;;5046995;28;20371;-83
2022/05/03 05:29:08;;;;;;;2.50;0.70;;;25.00;64.10;;;;;;5047073;28;20386;-84
2022/05/03 05:31:35;;;;;;;3.05;0.80;;;24.80;64.60;;;;;;5046997;28;20391;-84
2022/05/03 05:34:02;;;;;;;2.33;0.70;;;24.60;64.60;;;;;;5047214;28;20387;-84
2022/05/03 05:36:29;;;;;;;2.40;0.68;;;24.40;65.70;;;;;;5047110;28;20372;-84
2022/05/03 05:38:56;;;;;;;3.40;0.77;;;24.10;66.40;;;;;;5047036;28;20418;-84
2022/05/03 05:41:23;;;;;;;2.63;0.82;;;23.90;66.50;;;;;;5047150;28;20454;-84
2022/05/03 05:43:50;;;;;;;2.17;0.65;;;23.70;67.50;;;;;;5048055;28;20392;-84
2022/05/03 05:46:17;;;;;;;2.20;0.68;;;23.50;68.10;;;;;;5046705;28;20391;-84
2022/05/03 05:48:45;;;;;;;2.22;0.60;;;23.40;68.70;;;;;;5062297;28;20368;-84
2022/05/03 05:51:14;;;;;;;2.13;0.80;;;23.30;70.40;;;;;;5046818;28;20462;-85
2022/05/03 05:53:41;;;;;;;2.47;0.70;;;23.30;70.50;;;;;;5046774;28;20929;-83
2022/05/03 05:56:09;;;;;;;2.13;0.70;;;23.10;70.90;;;;;;5046774;28;20383;-83
2022/05/03 05:58:37;;;;;;;2.13;0.70;;;23.00;71.60;;;;;;5045355;28;20388;-83
2022/05/03 06:01:04;;;;;;;1.90;0.70;;;22.90;70.90;;;;;;5046734;28;20451;-85
2022/05/03 06:03:33;;;;;;;2.73;0.80;;;22.90;71.60;;;;;;5046810;28;20400;-84
2022/05/03 06:06:00;;;;;;;2.67;0.80;;;22.90;72.00;;;;;;5046694;28;20913;-84
2022/05/03 06:08:27;;;;;;;3.60;0.70;;;22.90;72.80;;;;;;5046820;28;20388;-84
2022/05/03 06:10:58;;;;;;;3.92;0.77;;;22.80;73.70;;;;;;5059116;28;20469;-86
2022/05/03 06:13:25;;;;;;;2.58;0.80;;;22.70;74.80;;;;;;5063982;28;20466;-83
2022/05/03 06:15:53;;;;;;;2.30;0.80;;;22.60;74.90;;;;;;5066697;28;20378;-83
2022/05/03 06:18:20;;;;;;;2.10;0.73;;;22.60;74.90;;;;;;5065524;28;20374;-83
2022/05/03 06:20:49;;;;;;;2.33;0.68;;;22.50;74.80;;;;;;5066550;28;20469;-83
2022/05/03 06:23:15;;;;;;;2.65;0.80;;;22.50;75.70;;;;;;5066055;28;20417;-83
2022/05/03 06:25:43;;;;;;;2.05;0.68;;;22.40;77.00;;;;;;5066497;28;20374;-83
2022/05/03 06:28:10;;;;;;;2.75;0.90;;;22.40;77.10;;;;;;5066117;28;20431;-83
2022/05/03 06:30:37;;;;;;;1.98;0.70;;;22.40;78.20;;;;;;5066645;28;20394;-84
2022/05/03 06:33:05;;;;;;;3.67;0.80;;;22.40;79.10;;;;;;5066551;28;20389;-83
2022/05/03 06:35:35;;;;;;;2.50;0.80;;;22.20;80.50;;;;;;5066512;28;20805;-83
2022/05/03 06:38:02;;;;;;;2.13;0.60;;;22.10;81.80;;;;;;5066319;28;20373;-84
2022/05/03 06:40:29;;;;;;;7.88;1.00;;;22.00;83.00;;;;;;5066045;28;20884;-82
2022/05/03 06:42:56;;;;;;;1.35;0.77;;;21.90;84.70;;;;;;5065953;28;20382;-82
2022/05/03 06:45:23;;;;;;;4.25;0.90;;;21.70;85.00;;;;;;5065966;28;20440;-82
2022/05/03 06:47:51;;;;;;;3.45;0.90;;;21.60;86.70;;;;;;5065334;28;20374;-82
2022/05/03 06:50:18;;;;;;;3.45;0.93;;;21.50;88.60;;;;;;5065531;28;20463;-82
2022/05/03 06:52:45;;;;;;;4.18;0.90;;;21.30;90.50;;;;;;5066191;28;20438;-82
2022/05/03 06:55:12;;;;;;;3.33;0.80;;;21.20;91.20;;;;;;5066186;28;20374;-83
2022/05/03 06:57:39;;;;;;;3.67;0.90;;;21.00;92.20;;;;;;5066028;28;20457;-81
2022/05/03 07:00:08;;;;;;;4.03;1.00;;;21.00;93.10;;;;;;5065701;28;20382;-82
2022/05/03 07:02:36;;;;;;;3.97;1.00;;;21.00;93.70;;;;;;5065576;28;20401;-81
2022/05/03 07:05:04;;;;;;;4.05;1.08;;;20.90;94.20;;;;;;5066249;28;20394;-81
2022/05/03 07:07:32;;;;;;;2.75;0.90;;;20.70;95.00;;;;;;5065096;28;20857;-83
2022/05/03 07:10:00;;;;;;;2.28;1.17;;;20.50;96.20;;;;;;5066258;28;20386;-85
2022/05/03 07:12:27;;;;;;;2.65;1.00;;;20.30;97.20;;;;;;5065387;28;20378;-83
2022/05/03 07:15:09;;;;;;;5.22;1.25;;;20.00;98.10;;;;;;5066051;28;20379;-84
2022/05/03 07:23:26;;;;;;;3.78;1.23;;;19.50;99.90;;;;;;5003834;28;20441;-83
2022/05/03 07:25:56;;;;;;;5.20;1.50;;;19.30;99.90;;;;;;5006397;28;20403;-81
2022/05/03 07:28:23;;;;;;;6.40;1.35;;;19.10;99.90;;;;;;5007323;28;20848;-82
2022/05/03 07:30:50;;;;;;;3.13;1.30;;;19.10;99.90;;;;;;5007042;28;21000;-82
2022/05/03 07:33:21;;;;;;;2.90;1.20;;;19.00;99.90;;;;;;5007285;28;20388;-81
2022/05/03 07:35:48;;;;;;;3.22;1.30;;;18.90;99.90;;;;;;5007322;28;20399;-81
2022/05/03 07:38:15;;;;;;;4.07;1.40;;;18.70;99.90;;;;;;5007094;28;20387;-80
2022/05/03 07:40:42;;;;;;;5.53;1.90;;;18.60;99.90;;;;;;4989869;28;20925;-80
2022/05/03 07:43:09;;;;;;;7.20;2.10;;;18.60;99.90;;;;;;5006533;28;20421;-81
2022/05/03 07:45:36;;;;;;;7.80;1.98;;;18.60;99.90;;;;;;5006872;28;20384;-81
2022/05/03 07:48:04;;;;;;;6.30;1.80;;;18.60;99.90;;;;;;5007150;28;20401;-80
2022/05/03 07:50:31;;;;;;;9.13;2.30;;;18.50;99.90;;;;;;5007343;28;20890;-80
2022/05/03 07:52:58;;;;;;;6.65;1.88;;;18.60;99.90;;;;;;5007188;28;20449;-81
2022/05/03 07:55:26;;;;;;;6.88;1.70;;;18.60;99.90;;;;;;5058109;28;20386;-80
2022/05/03 07:57:53;;;;;;;4.68;1.73;;;18.60;99.90;;;;;;5069369;28;20379;-81
2022/05/03 08:00:26;;;;;;;4.82;1.63;;;18.60;99.90;;;;;;5069961;28;20456;-81
2022/05/03 08:02:53;;;;;;;5.65;1.70;;;18.60;99.90;;;;;;5068538;28;20393;-82
2022/05/03 08:05:20;;;;;;;5.53;1.73;;;18.60;99.90;;;;;;5068440;28;20429;-80
2022/05/03 08:07:47;;;;;;;7.40;1.70;;;18.50;99.90;;;;;;5068525;28;20378;-79
2022/05/03 08:10:14;;;;;;;9.00;1.70;;;18.50;99.90;;;;;;5068076;28;20414;-80
2022/05/03 08:12:43;;;;;;;6.67;1.70;;;18.40;99.90;;;;;;5067847;28;20394;-81
2022/05/03 08:15:10;;;;;;;7.82;1.90;;;18.40;99.90;;;;;;5067625;28;20394;-82
2022/05/03 08:17:37;;;;;;;6.50;1.80;;;18.30;99.90;;;;;;5068714;28;20366;-80
2022/05/03 08:20:08;;;;;;;7.88;1.70;;;18.20;99.90;;;;;;5067996;28;20454;-80
2022/05/03 08:22:35;;;;;;;6.55;1.80;;;18.10;99.90;;;;;;5067612;28;20405;-80
2022/05/03 08:25:02;;;;;;;5.75;1.60;;;18.10;99.90;;;;;;5067985;28;20405;-81
2022/05/03 08:27:30;;;;;;;4.63;1.63;;;18.00;99.90;;;;;;5067678;28;20399;-81
2022/05/03 08:29:59;;;;;;;8.75;1.92;;;17.90;99.90;;;;;;5068003;28;20741;-81
2022/05/03 08:32:26;;;;;;;5.63;1.90;;;17.80;99.90;;;;;;5070713;28;20385;-80
2022/05/03 08:34:53;;;;;;;6.63;1.95;;;17.80;99.90;;;;;;5068236;28;20393;-80
2022/05/03 08:42:51;;;;;;;5.68;1.98;;;17.50;99.90;;;;;;5067025;28;20427;-82
2022/05/03 08:45:20;;;;;;;5.60;2.20;;;17.50;99.90;;;;;;5067278;28;20781;-82
2022/05/03 08:47:50;;;;;;;6.68;2.00;;;17.40;99.90;;;;;;5067822;28;20888;-83
2022/05/03 08:50:22;;;;;;;5.85;1.95;;;17.40;99.90;;;;;;5067643;28;20730;-84
2022/05/03 08:52:58;;;;;;;7.65;2.05;;;17.40;99.90;;;;;;5067456;28;20448;-83
2022/05/03 08:55:25;;;;;;;7.70;1.92;;;17.30;99.90;;;;;;5066993;28;20393;-82
2022/05/03 08:57:53;;;;;;;7.25;1.95;;;17.30;99.90;;;;;;5067284;28;20437;-83
2022/05/03 09:00:21;;;;;;;5.63;1.73;;;17.30;99.90;;;;;;5067374;28;20390;-82
2022/05/03 09:02:56;;;;;;;6.97;1.90;;;17.20;99.90;;;;;;5067557;28;20469;-82
2022/05/03 09:05:25;;;;;;;7.18;2.00;;;17.20;99.90;;;;;;5067573;28;20402;-83
2022/05/03 09:07:53;;;;;;;7.93;2.13;;;17.10;99.90;;;;;;5067069;28;20494;-83
2022/05/03 09:10:38;;;;;;;6.82;1.98;;;17.10;99.90;;;;;;5066141;28;20383;-84
2022/05/03 09:13:23;;;;;;;5.35;1.70;;;17.10;99.90;;;;;;5066801;28;20382;-82
2022/05/03 09:15:57;;;;;;;6.22;1.80;;;17.00;99.90;;;;;;5067208;28;20886;-82
2022/05/03 09:18:29;;;;;;;6.43;1.88;;;17.00;99.90;;;;;;5068321;28;20425;-83
2022/05/03 09:23:51;;;;;;;7.07;2.22;;;17.00;99.90;;;;;;5067108;28;20517;-82
2022/05/03 09:26:26;;;;;;;6.50;2.15;;;17.00;99.90;;;;;;5066770;28;20378;-82
2022/05/03 09:29:00;;;;;;;8.63;2.10;;;17.00;99.90;;;;;;5066794;28;20439;-83
2022/05/03 09:31:41;;;;;;;6.90;2.05;;;17.00;99.90;;;;;;5058164;28;20375;-82
2022/05/03 09:34:18;;;;;;;7.68;2.10;;;16.90;99.90;;;;;;5049523;28;20376;-83
2022/05/03 09:36:48;;;;;;;8.48;2.00;;;16.90;99.90;;;;;;5076406;28;20382;-83
2022/05/03 09:39:29;;;;;;;9.07;2.53;;;16.80;99.90;;;;;;5066637;28;20382;-82
2022/05/03 09:42:06;;;;;;;9.88;2.60;;;16.80;99.90;;;;;;5066756;28;20365;-83
2022/05/03 09:44:36;;;;;;;7.00;2.42;;;16.80;99.90;;;;;;5057942;28;20435;-82
2022/05/03 09:47:11;;;;;;;7.68;2.20;;;16.80;99.90;;;;;;5061513;28;20780;-82
2022/05/03 09:49:40;;;;;;;7.97;2.10;;;16.80;99.90;;;;;;5066283;28;20754;-82
2022/05/03 09:52:09;;;;;;;6.78;2.00;;;16.80;99.90;;;;;;5061959;28;20865;-82
2022/05/03 09:54:49;;;;;;;9.02;2.38;;;16.80;99.90;;;;;;5065897;28;20390;-82
2022/05/03 09:57:24;;;;;;;7.55;2.20;;;16.70;99.90;;;;;;5065608;28;20472;-82
2022/05/03 09:59:52;;;;;;;6.30;2.10;;;16.60;99.90;;;;;;5051316;28;20406;-83
2022/05/03 10:02:24;;;;;;;5.85;2.08;;;16.60;99.90;;;;;;5060548;28;20382;-82
2022/05/03 10:04:56;;;;;;;8.35;2.20;;;16.50;99.90;;;;;;5066349;28;20402;-83
2022/05/03 10:07:23;;;;;;;6.30;2.00;;;16.50;99.90;;;;;;5066006;28;20802;-83
2022/05/03 10:09:51;;;;;;;8.88;2.17;;;16.50;99.90;;;;;;5065637;28;20394;-84
2022/05/03 10:12:19;;;;;;;8.38;2.17;;;16.50;99.90;;;;;;5065696;28;20396;-83
2022/05/03 10:14:47;;;;;;;7.85;2.00;;;16.40;99.90;;;;;;5059427;28;20386;-84
2022/05/03 10:20:42;;;;;;;5.82;1.90;;;16.50;99.90;;;;;;5066598;28;20912;-83
2022/05/03 10:23:28;;;;;;;7.95;2.10;;;16.40;99.90;;;;;;5066381;28;20402;-83
2022/05/03 10:26:01;;;;;;;8.00;2.00;;;16.40;99.90;;;;;;5066350;28;20398;-83
2022/05/03 10:29:07;;;;;;;5.18;2.10;;;16.30;99.90;;;;;;5064636;28;21228;-83
2022/05/03 10:32:07;;;;;;;7.57;2.10;;;16.20;99.90;;;;;;5035646;28;20388;-83
2022/05/03 10:34:59;;;;;;;4.97;2.10;;;16.10;99.90;;;;;;5023978;28;20381;-83
2022/05/03 10:37:33;;;;;;;7.28;2.00;;;16.10;99.90;;;;;;5024521;28;20387;-83
2022/05/03 10:40:07;;;;;;;8.77;2.40;;;16.00;99.90;;;;;;5024136;28;20400;-83
2022/05/03 10:42:34;;;;;;;6.78;2.28;;;16.00;99.90;;;;;;5021993;28;20526;-83
2022/05/03 10:45:05;;;;;;;7.47;2.50;;;16.00;99.90;;;;;;5015270;28;20443;-82
2022/05/03 10:47:59;;;;;;;6.18;2.20;;;16.00;99.90;;;;;;5030845;28;20527;-83
2022/05/03 10:50:33;;;;;;;5.78;2.13;;;16.00;99.90;;;;;;5039528;28;20934;-83
2022/05/03 10:53:01;;;;;;;8.02;2.20;;;16.00;99.90;;;;;;5033862;28;20393;-83
2022/05/03 10:55:35;;;;;;;7.20;2.20;;;15.90;99.90;;;;;;5031362;28;20408;-82
2022/05/03 10:58:23;;;;;;;9.75;3.47;;;15.90;99.90;;;;;;5025634;28;20900;-82
2022/05/03 11:01:09;;;;;;;8.02;2.90;;;15.80;99.90;;;;;;5039400;28;20395;-82
2022/05/03 11:04:02;;;;;;;7.15;3.08;;;15.80;99.90;;;;;;5009852;28;20453;-82
2022/05/03 11:06:30;;;;;;;6.07;3.13;;;15.80;99.90;;;;;;5006315;28;20397;-82
2022/05/03 11:14:12;;;;;;;7.15;2.67;;;15.70;99.90;;;;;;5069059;28;20715;-82
2022/05/03 11:16:39;;;;;;;7.95;2.70;;;15.70;99.90;;;;;;5069543;28;20397;-82
2022/05/03 11:19:14;;;;;;;5.15;2.28;;;15.70;99.90;;;;;;5063450;28;20412;-82
2022/05/03 11:21:42;;;;;;;5.72;2.22;;;15.60;99.90;;;;;;5069164;28;20794;-82
2022/05/03 11:24:29;;;;;;;6.78;2.50;;;15.60;99.90;;;;;;5069037;28;20447;-82
2022/05/03 11:27:05;;;;;;;5.75;2.42;;;15.60;99.90;;;;;;5057555;28;20378;-82
2022/05/03 11:29:47;;;;;;;6.78;2.30;;;15.60;99.90;;;;;;5059548;28;20394;-83
2022/05/03 11:32:15;;;;;;;8.30;2.38;;;15.50;99.90;;;;;;5061662;28;20947;-81
2022/05/03 11:34:44;;;;;;;6.80;2.63;;;15.50;99.90;;;;;;5067951;28;20391;-83
2022/05/03 11:37:11;;;;;;;6.77;2.43;;;15.50;99.90;;;;;;5068714;28;20592;-84
2022/05/03 11:39:38;;;;;;;7.18;2.50;;;15.50;99.90;;;;;;5069062;28;20745;-82
2022/05/03 11:42:11;;;;;;;8.57;2.60;;;15.40;99.90;;;;;;5068794;28;20393;-83
2022/05/03 11:44:44;;;;;;;5.50;2.10;;;15.40;99.90;;;;;;5068812;28;20475;-83
2022/05/03 11:47:11;;;;;;;4.95;2.10;;;15.40;99.90;;;;;;5068104;28;20428;-82
2022/05/03 11:49:38;;;;;;;6.47;2.20;;;15.40;99.90;;;;;;5069175;28;20389;-81
2022/05/03 11:57:43;;;;;;;5.93;2.20;;;15.40;99.90;;;;;;5058589;28;20419;-83
2022/05/03 12:00:15;;;;;;;6.10;2.00;;;15.40;99.90;;;;;;5068234;28;20382;-82
2022/05/03 12:02:45;;;;;;;5.88;2.13;;;15.40;99.90;;;;;;5068459;28;20421;-82
2022/05/03 12:05:18;;;;;;;7.88;2.20;;;15.40;99.90;;;;;;5066804;28;20410;-82
2022/05/03 12:07:47;;;;;;;7.57;2.10;;;15.40;99.90;;;;;;5068817;28;20407;-82
2022/05/03 12:10:27;;;;;;;5.93;2.10;;;15.40;99.90;;;;;;5066005;28;20396;-83
2022/05/03 12:13:13;;;;;;;7.25;2.50;;;15.30;99.90;;;;;;5065104;28;20410;-84
2022/05/03 12:15:49;;;;;;;6.88;2.28;;;15.30;99.90;;;;;;5067146;28;20412;-82
2022/05/03 12:18:31;;;;;;;11.25;2.63;;;15.20;99.90;;;;;;5066492;28;20397;-80
2022/05/03 12:21:00;;;;;;;6.65;2.40;;;15.20;99.90;;;;;;5065765;28;20865;-82
2022/05/03 12:23:43;;;;;;;9.32;2.90;;;15.20;99.90;;;;;;5068121;28;20410;-81
2022/05/03 12:26:23;;;;;;;6.63;2.78;;;15.10;99.90;;;;;;5067842;28;20409;-83
2022/05/03 12:28:56;;;;;;;6.60;2.60;;;15.10;99.90;;;;;;5068220;28;20392;-82
2022/05/03 12:31:30;;;;;;;7.90;2.60;;;15.10;99.90;;;;;;5067004;28;20448;-81
2022/05/03 12:33:58;;;;;;;8.30;2.90;;;15.10;99.90;;;;;;5064035;28;20758;-81
2022/05/03 12:36:44;;;;;;;8.10;3.67;;;15.00;99.90;;;;;;5065978;28;20382;-82
2022/05/03 12:39:15;;;;;;;7.88;4.03;;;15.00;99.90;;;;;;5066518;28;20542;-82
2022/05/03 12:41:43;;;;;;;9.82;3.60;;;15.00;99.90;;;;;;5067961;28;20396;-83
2022/05/03 12:44:16;;;;;;;7.57;3.05;;;15.00;99.90;;;;;;5067171;28;20420;-83
2022/05/03 12:46:43;;;;;;;6.10;2.90;;;15.00;99.90;;;;;;5066026;28;20389;-84
2022/05/03 12:49:12;;;;;;;6.75;2.95;;;15.00;99.90;;;;;;5065889;28;20393;-82
2022/05/03 12:51:41;;;;;;;9.10;2.92;;;15.00;99.90;;;;;;5067354;28;20416;-82
2022/05/03 12:54:08;;;;;;;8.68;2.97;;;14.90;99.90;;;;;;5068480;28;20955;-83
2022/05/03 12:59:22;;;;;;;7.85;3.10;;;14.90;99.90;;;;;;5062563;28;20412;-83
2022/05/03 13:01:57;;;;;;;8.38;3.58;;;14.80;99.90;;;;;;5067462;28;20399;-83
2022/05/03 13:04:31;;;;;;;7.90;3.03;;;14.80;99.90;;;;;;5047935;28;20412;-82
2022/05/03 13:06:58;;;;;;;8.93;3.15;;;14.80;99.90;;;;;;5047675;28;20403;-82
2022/05/03 13:09:26;;;;;;;6.80;3.10;;;14.70;99.90;;;;;;5060709;28;20512;-82
2022/05/03 13:11:53;;;;;;;8.32;2.90;;;14.70;99.90;;;;;;5067700;28;20378;-82
2022/05/03 13:14:20;;;;;;;8.02;3.00;;;14.70;99.90;;;;;;5067270;28;20479;-82
2022/05/03 13:16:48;;;;;;;8.05;3.78;;;14.60;99.90;;;;;;5066803;28;20389;-83
2022/05/03 13:19:15;;;;;;;8.85;3.70;;;14.50;99.90;;;;;;5067340;28;20470;-82
2022/05/03 13:21:43;;;;;;;12.10;3.42;;;14.50;99.90;;;;;;5066459;28;20385;-82
2022/05/03 13:24:12;;;;;;;9.40;3.67;;;14.50;99.90;;;;;;5064030;28;20405;-82
2022/05/03 13:26:40;;;;;;;8.88;3.50;;;14.40;99.90;;;;;;5065494;28;20432;-82
2022/05/03 13:29:10;;;;;;;8.25;3.47;;;14.40;99.90;;;;;;5062479;28;20381;-82
2022/05/03 13:31:38;;;;;;;7.88;3.20;;;14.40;99.90;;;;;;5064581;28;20389;-82
2022/05/03 13:34:06;;;;;;;11.48;3.53;;;14.30;99.90;;;;;;5065073;28;20413;-83
2022/05/03 13:42:04;;;;;;;10.55;4.00;;;14.20;99.90;;;;;;5065741;28;20385;-81
2022/05/03 13:44:33;;;;;;;7.88;3.78;;;14.20;99.90;;;;;;5064548;28;20413;-82
2022/05/03 13:47:00;;;;;;;11.75;4.25;;;14.20;99.90;;;;;;5064511;28;20385;-82
2022/05/03 13:49:27;;;;;;;8.95;4.00;;;14.20;99.90;;;;;;5065095;28;20753;-82
2022/05/03 13:51:54;;;;;;;10.75;4.28;;;14.10;99.90;;;;;;5064856;28;20381;-81
2022/05/03 13:54:21;;;;;;;13.68;4.03;;;14.10;99.90;;;;;;5064913;28;20523;-82